Time;durP1;ratioP1;P1;durP2;ratioP2;P2;SDS_P1;SDS_P2;PMS_P1;PMS_P2;Temp;Humidity;BMP_temperature;BMP_pressure;BME280_temperature;BME280_humidity;BME280_pressure;Samples;Min_cycle;Max_cycle;Signal;HPM_P1;HPM_P2
2021/05/09 00:02:19;;;;;;;5.40;2.67;;;;;;;;;;5046982;28;20028;-85
2021/05/09 00:04:45;;;;;;;6.03;3.30;;;;;;;;;;5047127;28;20058;-85
2021/05/09 00:07:12;;;;;;;5.10;2.97;;;;;;;;;;5052698;28;20039;-86
2021/05/09 00:09:38;;;;;;;5.28;2.95;;;;;;;;;;5058545;28;20056;-85
2021/05/09 00:12:05;;;;;;;5.30;3.08;;;;;;;;;;5067275;28;20403;-85
2021/05/09 00:14:31;;;;;;;5.93;2.75;;;;;;;;;;5058267;28;20031;-85
2021/05/09 00:16:57;;;;;;;4.68;3.38;;;;;;;;;;5058411;28;20035;-85
2021/05/09 00:19:23;;;;;;;4.45;2.60;;;;;;;;;;5047175;28;20656;-85
2021/05/09 00:21:49;;;;;;;6.03;3.15;;;;;;;;;;5059881;28;20063;-85
2021/05/09 00:24:15;;;;;;;4.97;3.30;;;;;;;;;;5060145;28;20082;-85
2021/05/09 00:26:41;;;;;;;4.82;3.20;;;;;;;;;;5042795;28;20083;-85
2021/05/09 00:29:07;;;;;;;5.10;3.30;;;;;;;;;;5078028;28;20020;-85
2021/05/09 00:31:33;;;;;;;6.18;2.60;;;;;;;;;;5056124;28;20031;-85
2021/05/09 00:33:59;;;;;;;4.90;2.78;;;;;;;;;;5059481;28;20021;-85
2021/05/09 00:36:26;;;;;;;5.88;2.83;;;;;;;;;;5045231;28;20460;-85
2021/05/09 00:38:52;;;;;;;4.82;3.22;;;;;;;;;;5041637;28;20021;-85
2021/05/09 00:41:18;;;;;;;6.25;3.13;;;;;;;;;;5054453;28;20483;-85
2021/05/09 00:43:44;;;;;;;4.50;2.95;;;;;;;;;;5059327;28;20071;-85
2021/05/09 00:46:10;;;;;;;9.13;3.90;;;;;;;;;;5059389;28;20032;-86
2021/05/09 00:48:36;;;;;;;6.03;2.92;;;;;;;;;;5059418;28;20024;-86
2021/05/09 00:51:02;;;;;;;7.10;2.80;;;;;;;;;;5044485;28;20119;-86
2021/05/09 00:53:28;;;;;;;4.90;3.15;;;;;;;;;;5040078;28;20115;-86
2021/05/09 00:55:55;;;;;;;8.80;2.90;;;;;;;;;;5041838;28;20056;-86
2021/05/09 00:58:23;;;;;;;4.28;2.58;;;;;;;;;;5059576;28;20131;-85
2021/05/09 01:00:50;;;;;;;4.38;2.80;;;;;;;;;;5075462;28;20162;-85
2021/05/09 01:03:19;;;;;;;5.00;3.10;;;;;;;;;;5066338;28;20028;-85
2021/05/09 01:05:45;;;;;;;6.45;3.00;;;;;;;;;;5054879;28;20029;-86
2021/05/09 01:08:11;;;;;;;5.00;2.58;;;;;;;;;;5058446;28;20036;-86
2021/05/09 01:10:37;;;;;;;5.38;3.25;;;;;;;;;;5059313;28;20021;-86
2021/05/09 01:13:03;;;;;;;4.03;2.60;;;;;;;;;;5057618;28;20484;-86
2021/05/09 01:15:29;;;;;;;3.75;2.33;;;;;;;;;;5058467;28;20016;-86
2021/05/09 01:17:56;;;;;;;4.93;2.72;;;;;;;;;;5058977;28;20115;-86
2021/05/09 01:20:22;;;;;;;4.78;3.03;;;;;;;;;;5059217;28;20476;-86
2021/05/09 01:22:48;;;;;;;6.28;3.55;;;;;;;;;;5050360;28;20032;-86
2021/05/09 01:25:14;;;;;;;4.38;2.83;;;;;;;;;;5054891;28;20081;-86
2021/05/09 01:27:40;;;;;;;4.75;2.70;;;;;;;;;;5058043;28;20044;-86
2021/05/09 01:30:09;;;;;;;5.47;2.85;;;;;;;;;;5049853;28;20171;-85
2021/05/09 01:32:35;;;;;;;3.92;2.53;;;;;;;;;;5058496;28;20778;-86
2021/05/09 01:35:01;;;;;;;8.30;2.78;;;;;;;;;;5044025;28;20040;-86
2021/05/09 01:37:27;;;;;;;4.18;2.85;;;;;;;;;;5059178;28;20012;-86
2021/05/09 01:39:53;;;;;;;6.90;3.50;;;;;;;;;;5058591;28;20040;-86
2021/05/09 01:42:19;;;;;;;10.20;3.50;;;;;;;;;;5054612;28;20425;-86
2021/05/09 01:44:51;;;;;;;5.38;3.22;;;;;;;;;;5055751;28;20024;-86
2021/05/09 01:47:17;;;;;;;4.57;3.03;;;;;;;;;;5058519;28;20116;-86
2021/05/09 01:49:43;;;;;;;4.40;3.22;;;;;;;;;;5050922;28;20048;-86
2021/05/09 01:52:09;;;;;;;4.25;2.85;;;;;;;;;;5058107;28;20025;-86
2021/05/09 01:54:35;;;;;;;4.68;2.92;;;;;;;;;;5051981;28;20051;-86
2021/05/09 01:57:01;;;;;;;5.18;2.97;;;;;;;;;;5050217;28;20021;-86
2021/05/09 01:59:27;;;;;;;7.18;3.30;;;;;;;;;;5037936;28;20028;-86
2021/05/09 02:01:53;;;;;;;4.40;2.45;;;;;;;;;;5055617;28;20109;-86
2021/05/09 02:04:19;;;;;;;4.75;3.30;;;;;;;;;;5075990;28;20361;-86
2021/05/09 02:06:45;;;;;;;5.20;3.03;;;;;;;;;;5040295;28;20115;-86
2021/05/09 02:09:11;;;;;;;3.95;2.67;;;;;;;;;;5048553;28;20067;-86
2021/05/09 02:11:37;;;;;;;4.68;2.78;;;;;;;;;;5044286;28;20025;-86
2021/05/09 02:14:03;;;;;;;4.65;2.85;;;;;;;;;;5058340;28;20127;-86
2021/05/09 02:16:29;;;;;;;8.68;3.38;;;;;;;;;;5053840;28;20052;-86
2021/05/09 02:18:55;;;;;;;4.45;2.70;;;;;;;;;;5054854;28;20075;-85
2021/05/09 02:21:21;;;;;;;5.45;2.90;;;;;;;;;;5069636;28;20029;-85
2021/05/09 02:23:47;;;;;;;4.72;2.83;;;;;;;;;;5057918;28;20491;-85
2021/05/09 02:26:13;;;;;;;4.97;2.83;;;;;;;;;;5053219;28;20071;-86
2021/05/09 02:28:39;;;;;;;5.13;2.65;;;;;;;;;;5065263;28;20039;-86
2021/05/09 02:31:05;;;;;;;6.13;2.65;;;;;;;;;;5057704;28;20438;-86
2021/05/09 02:33:31;;;;;;;3.13;2.53;;;;;;;;;;5057471;28;20040;-86
2021/05/09 02:35:57;;;;;;;5.63;2.90;;;;;;;;;;5057942;28;20021;-86
2021/05/09 02:38:23;;;;;;;6.30;2.80;;;;;;;;;;5075215;28;20040;-86
2021/05/09 02:40:49;;;;;;;5.72;2.70;;;;;;;;;;5075418;28;20090;-86
2021/05/09 02:43:16;;;;;;;2.83;2.47;;;;;;;;;;5051183;28;20067;-86
2021/05/09 02:45:41;;;;;;;5.45;2.63;;;;;;;;;;5043321;28;20028;-85
2021/05/09 02:48:08;;;;;;;4.20;2.72;;;;;;;;;;5056718;28;20028;-85
2021/05/09 02:50:34;;;;;;;4.70;2.83;;;;;;;;;;5039168;28;20125;-86
2021/05/09 02:53:00;;;;;;;3.42;2.33;;;;;;;;;;5044956;28;20017;-86
2021/05/09 02:55:26;;;;;;;3.72;2.42;;;;;;;;;;5042995;28;20119;-86
2021/05/09 02:57:52;;;;;;;5.45;2.42;;;;;;;;;;5056570;28;20020;-86
2021/05/09 03:00:18;;;;;;;4.63;2.30;;;;;;;;;;5056731;28;20184;-86
2021/05/09 03:02:44;;;;;;;2.97;2.58;;;;;;;;;;5056798;28;20070;-86
2021/05/09 03:05:10;;;;;;;4.60;2.60;;;;;;;;;;5066342;28;20416;-86
2021/05/09 03:07:36;;;;;;;4.95;2.33;;;;;;;;;;5056515;28;20029;-86
2021/05/09 03:10:03;;;;;;;7.60;2.67;;;;;;;;;;5056939;28;20047;-86
2021/05/09 03:12:29;;;;;;;4.32;2.50;;;;;;;;;;5049544;28;20502;-86
2021/05/09 03:14:55;;;;;;;3.78;2.75;;;;;;;;;;5057160;28;20032;-86
2021/05/09 03:17:21;;;;;;;3.42;2.50;;;;;;;;;;5051874;28;20024;-85
2021/05/09 03:19:47;;;;;;;4.18;2.50;;;;;;;;;;5057022;28;20753;-86
2021/05/09 03:22:13;;;;;;;5.18;2.70;;;;;;;;;;5056794;28;20032;-86
2021/05/09 03:24:39;;;;;;;4.82;2.53;;;;;;;;;;5051290;28;20047;-86
2021/05/09 03:27:05;;;;;;;4.25;2.60;;;;;;;;;;5049078;28;20067;-86
2021/05/09 03:29:31;;;;;;;4.18;2.40;;;;;;;;;;5049311;28;20436;-86
2021/05/09 03:31:57;;;;;;;4.15;2.63;;;;;;;;;;5048891;28;20388;-86
2021/05/09 03:34:23;;;;;;;2.97;2.28;;;;;;;;;;5049492;28;20031;-86
2021/05/09 03:36:49;;;;;;;6.68;2.78;;;;;;;;;;5042833;28;20533;-86
2021/05/09 03:39:15;;;;;;;4.90;2.45;;;;;;;;;;5072986;28;20016;-86
2021/05/09 03:41:41;;;;;;;4.18;2.75;;;;;;;;;;5055452;28;20495;-86
2021/05/09 03:44:07;;;;;;;4.43;2.85;;;;;;;;;;5051901;28;20491;-86
2021/05/09 03:46:33;;;;;;;4.40;2.92;;;;;;;;;;5047732;28;20029;-86
2021/05/09 03:48:59;;;;;;;4.20;2.78;;;;;;;;;;5048329;28;20115;-86
2021/05/09 03:51:25;;;;;;;3.97;2.42;;;;;;;;;;5056996;28;20028;-86
2021/05/09 03:53:51;;;;;;;4.00;2.78;;;;;;;;;;5055199;28;20021;-85
2021/05/09 03:56:17;;;;;;;4.82;2.90;;;;;;;;;;5046583;28;20040;-86
2021/05/09 03:58:43;;;;;;;4.65;2.83;;;;;;;;;;5053024;28;20460;-86
2021/05/09 04:01:09;;;;;;;4.53;2.58;;;;;;;;;;5052986;28;20388;-86
2021/05/09 04:03:35;;;;;;;5.07;2.58;;;;;;;;;;5068261;28;20065;-86
2021/05/09 04:06:01;;;;;;;4.15;2.72;;;;;;;;;;5048605;28;20020;-86
2021/05/09 04:08:27;;;;;;;3.55;2.35;;;;;;;;;;5046881;28;20038;-86
2021/05/09 04:10:58;;;;;;;3.47;2.45;;;;;;;;;;5032895;28;20033;-86
2021/05/09 04:13:24;;;;;;;4.40;2.30;;;;;;;;;;5050067;28;20037;-86
2021/05/09 04:15:50;;;;;;;7.35;2.58;;;;;;;;;;5051271;28;20029;-86
2021/05/09 04:18:17;;;;;;;4.63;3.17;;;;;;;;;;5039060;28;20152;-86
2021/05/09 04:20:43;;;;;;;4.95;2.80;;;;;;;;;;5033211;28;20021;-86
2021/05/09 04:23:12;;;;;;;4.68;2.35;;;;;;;;;;5035027;28;20120;-86
2021/05/09 04:25:38;;;;;;;5.43;2.40;;;;;;;;;;5032429;28;20083;-86
2021/05/09 04:28:04;;;;;;;4.10;2.80;;;;;;;;;;5051389;28;20531;-86
2021/05/09 04:30:30;;;;;;;3.70;2.60;;;;;;;;;;5053113;28;20032;-86
2021/05/09 04:32:57;;;;;;;5.32;3.03;;;;;;;;;;5039667;28;20703;-86
2021/05/09 04:35:23;;;;;;;4.20;2.60;;;;;;;;;;5032890;28;20053;-86
2021/05/09 04:37:49;;;;;;;10.60;2.88;;;;;;;;;;5052364;28;20025;-86
2021/05/09 04:40:15;;;;;;;4.20;2.60;;;;;;;;;;5052908;28;20037;-86
2021/05/09 04:42:41;;;;;;;3.95;2.75;;;;;;;;;;5050805;28;20097;-85
2021/05/09 04:45:07;;;;;;;5.82;3.25;;;;;;;;;;5056188;28;20056;-86
2021/05/09 04:47:33;;;;;;;8.88;3.20;;;;;;;;;;5052373;28;20033;-86
2021/05/09 04:49:59;;;;;;;3.25;2.50;;;;;;;;;;5056828;28;20032;-86
2021/05/09 04:52:25;;;;;;;5.03;3.10;;;;;;;;;;5041176;28;20068;-86
2021/05/09 04:54:51;;;;;;;4.50;2.63;;;;;;;;;;5042274;28;20028;-86
2021/05/09 04:57:17;;;;;;;3.05;2.33;;;;;;;;;;5050406;28;20025;-86
2021/05/09 04:59:43;;;;;;;4.53;2.92;;;;;;;;;;5047766;28;20018;-86
2021/05/09 05:02:09;;;;;;;4.00;2.75;;;;;;;;;;5049656;28;20518;-86
2021/05/09 05:04:35;;;;;;;3.33;2.60;;;;;;;;;;5051487;28;20033;-86
2021/05/09 05:07:01;;;;;;;5.47;2.80;;;;;;;;;;5044505;28;20049;-86
2021/05/09 05:09:27;;;;;;;3.53;2.30;;;;;;;;;;5051553;28;20041;-86
2021/05/09 05:11:54;;;;;;;4.38;2.90;;;;;;;;;;5065647;28;20061;-86
2021/05/09 05:14:20;;;;;;;2.95;2.10;;;;;;;;;;5055929;28;20021;-86
2021/05/09 05:16:46;;;;;;;4.47;2.13;;;;;;;;;;5056091;28;20024;-86
2021/05/09 05:19:12;;;;;;;5.80;2.08;;;;;;;;;;5055983;28;20079;-85
2021/05/09 05:21:38;;;;;;;4.07;2.30;;;;;;;;;;5046621;28;20495;-86
2021/05/09 05:24:04;;;;;;;3.95;2.50;;;;;;;;;;5052112;28;20052;-86
2021/05/09 05:26:30;;;;;;;4.40;2.20;;;;;;;;;;5045790;28;20052;-86
2021/05/09 05:28:56;;;;;;;4.22;2.42;;;;;;;;;;5046867;28;20029;-85
2021/05/09 05:31:22;;;;;;;5.47;2.40;;;;;;;;;;5056181;28;20032;-85
2021/05/09 05:33:48;;;;;;;5.97;2.50;;;;;;;;;;5047618;28;20393;-86
2021/05/09 05:36:14;;;;;;;5.60;2.25;;;;;;;;;;5046573;28;20024;-79
2021/05/09 05:38:40;;;;;;;8.50;4.22;;;;;;;;;;5056785;28;20071;-86
2021/05/09 05:41:06;;;;;;;6.70;2.55;;;;;;;;;;5060315;28;20029;-85
2021/05/09 05:43:32;;;;;;;3.72;2.30;;;;;;;;;;5040682;28;20036;-85
2021/05/09 05:45:59;;;;;;;7.32;2.53;;;;;;;;;;5040917;28;20053;-86
2021/05/09 05:48:26;;;;;;;3.78;2.10;;;;;;;;;;5054639;28;20025;-85
2021/05/09 05:50:52;;;;;;;2.72;2.05;;;;;;;;;;5054411;28;20082;-86
2021/05/09 05:53:19;;;;;;;3.17;2.40;;;;;;;;;;5055359;28;20501;-85
2021/05/09 05:55:45;;;;;;;3.15;2.03;;;;;;;;;;5054001;28;20121;-85
2021/05/09 05:58:11;;;;;;;3.47;2.28;;;;;;;;;;5054116;28;20524;-85
2021/05/09 06:00:37;;;;;;;4.88;2.30;;;;;;;;;;5055037;28;20036;-85
2021/05/09 06:03:03;;;;;;;3.40;2.20;;;;;;;;;;5054026;28;20120;-84
2021/05/09 06:05:29;;;;;;;4.05;2.03;;;;;;;;;;5039761;28;20389;-85
2021/05/09 06:07:55;;;;;;;3.20;1.80;;;;;;;;;;5048656;28;20056;-85
2021/05/09 06:10:21;;;;;;;3.65;1.90;;;;;;;;;;5049056;28;20086;-85
2021/05/09 06:12:47;;;;;;;3.72;1.98;;;;;;;;;;5057958;28;20411;-85
2021/05/09 06:15:15;;;;;;;4.85;2.00;;;;;;;;;;5048538;28;20028;-85
2021/05/09 06:17:41;;;;;;;5.78;2.45;;;;;;;;;;5063318;28;20052;-84
2021/05/09 06:20:08;;;;;;;3.70;2.03;;;;;;;;;;5047708;28;20027;-86
2021/05/09 06:22:34;;;;;;;2.13;1.70;;;;;;;;;;5069966;28;20111;-86
2021/05/09 06:25:00;;;;;;;2.10;1.58;;;;;;;;;;5052352;28;20021;-87
2021/05/09 06:27:26;;;;;;;3.00;1.83;;;;;;;;;;5040576;28;20071;-85
2021/05/09 06:29:52;;;;;;;3.70;1.92;;;;;;;;;;5075295;28;20376;-83
2021/05/09 06:32:18;;;;;;;3.10;1.65;;;;;;;;;;5045326;28;20025;-84
2021/05/09 06:34:44;;;;;;;2.70;1.90;;;;;;;;;;5046015;28;20029;-83
2021/05/09 06:37:14;;;;;;;6.32;1.80;;;;;;;;;;5070022;28;20021;-85
2021/05/09 06:39:40;;;;;;;5.38;2.00;;;;;;;;;;5056503;28;20051;-85
2021/05/09 06:42:07;;;;;;;3.08;2.00;;;;;;;;;;5043936;28;20373;-85
2021/05/09 06:44:36;;;;;;;2.50;1.63;;;;;;;;;;5056225;28;20039;-85
2021/05/09 06:47:02;;;;;;;2.67;1.58;;;;;;;;;;5051657;28;20017;-83
2021/05/09 06:49:29;;;;;;;2.05;1.75;;;;;;;;;;5052779;28;20082;-84
2021/05/09 06:51:56;;;;;;;2.67;2.10;;;;;;;;;;5053048;28;20031;-84
2021/05/09 06:54:22;;;;;;;2.97;1.98;;;;;;;;;;5054227;28;20074;-84
2021/05/09 06:56:51;;;;;;;2.78;1.52;;;;;;;;;;5062476;28;20021;-83
2021/05/09 06:59:18;;;;;;;1.85;1.45;;;;;;;;;;5055369;28;20115;-83
2021/05/09 07:01:44;;;;;;;4.90;1.70;;;;;;;;;;5062351;28;20113;-83
2021/05/09 07:04:10;;;;;;;3.90;1.88;;;;;;;;;;5056243;28;20032;-84
2021/05/09 07:06:36;;;;;;;3.00;2.03;;;;;;;;;;5056191;28;20029;-84
2021/05/09 07:09:05;;;;;;;4.22;2.30;;;;;;;;;;5052792;28;20041;-84
2021/05/09 07:11:31;;;;;;;5.93;2.75;;;;;;;;;;5040340;28;20049;-84
2021/05/09 07:13:57;;;;;;;2.42;1.38;;;;;;;;;;5052522;28;20392;-86
2021/05/09 07:16:25;;;;;;;2.63;1.50;;;;;;;;;;5062142;28;20258;-87
2021/05/09 07:18:51;;;;;;;3.22;1.58;;;;;;;;;;5033159;28;20021;-86
2021/05/09 07:21:24;;;;;;;3.45;1.50;;;;;;;;;;5038859;28;20036;-86
2021/05/09 07:23:50;;;;;;;2.72;1.50;;;;;;;;;;5053220;28;20051;-86
2021/05/09 07:26:16;;;;;;;5.57;1.85;;;;;;;;;;5052839;28;20432;-86
2021/05/09 07:28:42;;;;;;;3.47;1.52;;;;;;;;;;5049724;28;20055;-86
2021/05/09 07:31:08;;;;;;;3.78;1.38;;;;;;;;;;5046348;28;20025;-86
2021/05/09 07:33:34;;;;;;;4.25;1.30;;;;;;;;;;5050038;28;20033;-86
2021/05/09 07:36:00;;;;;;;3.20;1.40;;;;;;;;;;5059205;28;20366;-86
2021/05/09 07:38:27;;;;;;;3.17;1.55;;;;;;;;;;5032764;28;20018;-86
2021/05/09 07:40:53;;;;;;;2.70;1.38;;;;;;;;;;5043106;28;20116;-86
2021/05/09 07:43:19;;;;;;;4.80;1.48;;;;;;;;;;5056120;28;20067;-86
2021/05/09 07:45:45;;;;;;;2.33;1.50;;;;;;;;;;5039268;28;20452;-86
2021/05/09 07:48:11;;;;;;;2.50;1.38;;;;;;;;;;5045431;28;20053;-87
2021/05/09 07:50:37;;;;;;;3.80;1.35;;;;;;;;;;5046293;28;20037;-87
2021/05/09 07:53:04;;;;;;;3.10;1.33;;;;;;;;;;5049226;28;20128;-86
2021/05/09 07:55:30;;;;;;;2.97;1.30;;;;;;;;;;5052645;28;20060;-86
2021/05/09 07:57:57;;;;;;;2.65;1.20;;;;;;;;;;5053773;28;20384;-86
2021/05/09 08:00:24;;;;;;;1.90;1.30;;;;;;;;;;5039185;28;20465;-86
2021/05/09 08:02:50;;;;;;;2.22;1.10;;;;;;;;;;5052063;28;20060;-85
2021/05/09 08:05:19;;;;;;;3.08;1.35;;;;;;;;;;5045861;28;20117;-88
2021/05/09 08:07:49;;;;;;;3.05;1.30;;;;;;;;;;5046707;28;20116;-86
2021/05/09 08:10:15;;;;;;;2.47;1.20;;;;;;;;;;5040533;28;20732;-86
2021/05/09 08:12:41;;;;;;;2.30;1.35;;;;;;;;;;5036214;28;20086;-86
2021/05/09 08:15:07;;;;;;;2.08;1.00;;;;;;;;;;5032331;28;20034;-85
2021/05/09 08:17:33;;;;;;;1.98;1.17;;;;;;;;;;5046182;28;20417;-85
2021/05/09 08:19:59;;;;;;;2.63;1.08;;;;;;;;;;5048017;28;20036;-86
2021/05/09 08:22:26;;;;;;;2.63;1.25;;;;;;;;;;5055925;28;20044;-86
2021/05/09 08:24:52;;;;;;;2.13;1.05;;;;;;;;;;5046084;28;20048;-86
2021/05/09 08:27:18;;;;;;;1.90;1.15;;;;;;;;;;5039035;28;20033;-87
2021/05/09 08:29:43;;;;;;;1.35;0.80;;;;;;;;;;5056558;28;20060;-86
2021/05/09 08:32:09;;;;;;;1.50;0.90;;;;;;;;;;5055447;28;20063;-86
2021/05/09 08:34:35;;;;;;;3.80;1.23;;;;;;;;;;5044754;28;20025;-86
2021/05/09 08:37:01;;;;;;;1.98;1.08;;;;;;;;;;5056014;28;20033;-86
2021/05/09 08:39:27;;;;;;;2.92;1.13;;;;;;;;;;5052778;28;20021;-86
2021/05/09 08:41:53;;;;;;;1.67;0.95;;;;;;;;;;5054968;28;20048;-87
2021/05/09 08:44:19;;;;;;;2.50;1.00;;;;;;;;;;5037658;28;20664;-86
2021/05/09 08:46:46;;;;;;;3.75;0.80;;;;;;;;;;5054034;28;20091;-81
2021/05/09 08:49:17;;;;;;;2.67;1.00;;;;;;;;;;5038596;28;20029;-79
2021/05/09 08:51:44;;;;;;;1.10;0.70;;;;;;;;;;5051326;28;20444;-79
2021/05/09 08:54:10;;;;;;;3.15;1.15;;;;;;;;;;5046639;28;20026;-78
2021/05/09 08:56:36;;;;;;;2.90;1.17;;;;;;;;;;5055112;28;20350;-78
2021/05/09 08:59:02;;;;;;;1.58;0.73;;;;;;;;;;5051620;28;20032;-79
2021/05/09 09:01:29;;;;;;;1.50;0.70;;;;;;;;;;5055042;28;20121;-80
2021/05/09 09:03:55;;;;;;;1.85;1.20;;;;;;;;;;5052135;28;20053;-78
2021/05/09 09:06:40;;;;;;;1.92;0.77;;;;;;;;;;5048097;28;20032;-79
2021/05/09 09:09:06;;;;;;;1.48;0.80;;;;;;;;;;5049837;28;20049;-79
2021/05/09 09:11:32;;;;;;;4.32;1.10;;;;;;;;;;5047291;28;20079;-79
2021/05/09 09:14:09;;;;;;;1.70;0.90;;;;;;;;;;5050011;28;20458;-79
2021/05/09 09:16:37;;;;;;;2.25;0.95;;;;;;;;;;5037280;28;20026;-79
2021/05/09 09:19:11;;;;;;;1.52;0.82;;;;;;;;;;5053220;28;20024;-79
2021/05/09 09:21:37;;;;;;;6.50;1.75;;;;;;;;;;5054374;28;20388;-81
2021/05/09 09:24:07;;;;;;;0.90;0.75;;;;;;;;;;5055777;28;20021;-81
2021/05/09 09:26:41;;;;;;;0.95;0.70;;;;;;;;;;5055882;28;20036;-81
2021/05/09 09:29:28;;;;;;;1.95;0.93;;;;;;;;;;5052155;28;20028;-87
2021/05/09 09:31:58;;;;;;;1.80;0.57;;;;;;;;;;5052589;28;20029;-85
2021/05/09 09:34:37;;;;;;;2.78;0.60;;;;;;;;;;5041006;28;20029;-87
2021/05/09 09:37:03;;;;;;;1.23;0.75;;;;;;;;;;5055035;28;20560;-86
2021/05/09 09:39:45;;;;;;;1.00;0.55;;;;;;;;;;5052683;28;20110;-84
2021/05/09 09:42:11;;;;;;;1.05;0.55;;;;;;;;;;5043400;28;20028;-86
2021/05/09 09:44:37;;;;;;;1.10;0.60;;;;;;;;;;5049095;28;20029;-84
2021/05/09 09:47:03;;;;;;;3.25;0.68;;;;;;;;;;5050735;28;20029;-86
2021/05/09 09:49:31;;;;;;;1.33;0.70;;;;;;;;;;5045146;28;20021;-84
2021/05/09 09:51:58;;;;;;;1.08;0.50;;;;;;;;;;5053338;28;20017;-82
2021/05/09 09:54:31;;;;;;;1.55;0.70;;;;;;;;;;5035960;28;20515;-85
2021/05/09 09:56:57;;;;;;;0.65;0.50;;;;;;;;;;5056061;28;20067;-85
2021/05/09 09:59:23;;;;;;;1.55;0.70;;;;;;;;;;5054225;28;20473;-85
2021/05/09 10:01:49;;;;;;;1.95;0.70;;;;;;;;;;5046997;28;20111;-86
2021/05/09 10:04:15;;;;;;;2.25;0.70;;;;;;;;;;5043877;28;20025;-86
2021/05/09 10:06:41;;;;;;;1.98;0.60;;;;;;;;;;5057342;28;20029;-87
2021/05/09 10:09:09;;;;;;;8.32;1.17;;;;;;;;;;5053842;28;20049;-86
2021/05/09 10:11:36;;;;;;;2.53;0.50;;;;;;;;;;5049337;28;20107;-86
2021/05/09 10:14:02;;;;;;;0.93;0.70;;;;;;;;;;5034067;28;20144;-86
2021/05/09 10:16:28;;;;;;;3.33;0.70;;;;;;;;;;5038401;28;20063;-86
2021/05/09 10:18:58;;;;;;;0.80;0.40;;;;;;;;;;5053218;28;20029;-85
2021/05/09 10:21:31;;;;;;;2.83;0.52;;;;;;;;;;5052741;28;20095;-85
2021/05/09 10:24:15;;;;;;;0.98;0.75;;;;;;;;;;5041594;28;20112;-85
2021/05/09 10:26:55;;;;;;;0.93;0.57;;;;;;;;;;5043810;28;20455;-86
2021/05/09 10:29:48;;;;;;;0.90;0.40;;;;;;;;;;5051173;28;20358;-86
2021/05/09 10:32:20;;;;;;;0.90;0.50;;;;;;;;;;5048712;28;20036;-85
2021/05/09 10:34:56;;;;;;;1.33;0.40;;;;;;;;;;5053586;28;20078;-85
2021/05/09 10:37:34;;;;;;;1.13;0.40;;;;;;;;;;5053751;28;20052;-85
2021/05/09 10:40:23;;;;;;;1.70;0.47;;;;;;;;;;5053894;28;20021;-85
2021/05/09 10:43:04;;;;;;;0.88;0.40;;;;;;;;;;5033431;28;20132;-84
2021/05/09 10:45:38;;;;;;;0.73;0.50;;;;;;;;;;5038975;28;20029;-85
2021/05/09 10:48:14;;;;;;;1.00;0.40;;;;;;;;;;5052650;28;20025;-85
2021/05/09 10:50:44;;;;;;;1.85;0.57;;;;;;;;;;5053877;28;20047;-85
2021/05/09 10:53:10;;;;;;;1.20;0.60;;;;;;;;;;5052658;28;20025;-85
2021/05/09 10:55:36;;;;;;;0.93;0.60;;;;;;;;;;5052832;28;20471;-86
2021/05/09 10:58:09;;;;;;;1.67;0.98;;;;;;;;;;5048635;28;20025;-86
2021/05/09 11:00:35;;;;;;;;;;;;;;;;;;5033660;28;20033;-86
2021/05/09 11:03:01;;;;;;;3.30;0.63;;;;;;;;;;5048998;28;19909;-85
2021/05/09 11:05:46;;;;;;;1.30;0.50;;;;;;;;;;5055340;28;20068;-84
2021/05/09 11:08:12;;;;;;;0.88;0.45;;;;;;;;;;5047858;28;20032;-86
2021/05/09 11:10:39;;;;;;;2.05;0.50;;;;;;;;;;5070517;28;20429;-86
2021/05/09 11:13:06;;;;;;;1.63;0.40;;;;;;;;;;5044174;28;20021;-86
2021/05/09 11:15:32;;;;;;;0.90;0.30;;;;;;;;;;5067501;28;20047;-86
2021/05/09 11:17:58;;;;;;;1.13;0.43;;;;;;;;;;5055910;28;20480;-86
2021/05/09 11:20:24;;;;;;;1.13;0.50;;;;;;;;;;5051913;28;20033;-86
2021/05/09 11:22:57;;;;;;;1.13;0.57;;;;;;;;;;5056390;28;20036;-86
2021/05/09 11:25:30;;;;;;;0.93;0.50;;;;;;;;;;5051186;28;20056;-87
2021/05/09 11:27:56;;;;;;;;;;;;;;;;;;5057683;28;20502;-87
2021/05/09 11:30:22;;;;;;;3.22;0.60;;;;;;;;;;5055870;28;19994;-87
2021/05/09 11:32:48;;;;;;;1.85;0.45;;;;;;;;;;5056054;28;20033;-87
2021/05/09 11:35:14;;;;;;;1.45;0.80;;;;;;;;;;5055433;28;20016;-85
2021/05/09 11:37:41;;;;;;;0.70;0.47;;;;;;;;;;5056974;28;20449;-87
2021/05/09 11:40:09;;;;;;;4.13;0.57;;;;;;;;;;5056429;28;20369;-87
2021/05/09 11:42:35;;;;;;;0.95;0.60;;;;;;;;;;5051184;28;20115;-87
2021/05/09 11:45:02;;;;;;;1.45;0.60;;;;;;;;;;5057602;28;20032;-87
2021/05/09 11:47:29;;;;;;;1.55;0.55;;;;;;;;;;5038494;28;20021;-87
2021/05/09 11:49:59;;;;;;;2.05;0.60;;;;;;;;;;5049104;28;20384;-86
2021/05/09 11:52:36;;;;;;;3.65;0.52;;;;;;;;;;5052053;28;20032;-87
2021/05/09 11:55:03;;;;;;;0.85;0.50;;;;;;;;;;5059779;28;20020;-87
2021/05/09 11:57:30;;;;;;;1.23;0.40;;;;;;;;;;5058983;28;20119;-86
2021/05/09 11:59:57;;;;;;;1.90;0.30;;;;;;;;;;5059567;28;20079;-86
2021/05/09 12:02:37;;;;;;;1.42;0.35;;;;;;;;;;5056754;28;20048;-87
2021/05/09 12:05:09;;;;;;;0.95;0.30;;;;;;;;;;5062482;28;20024;-87
2021/05/09 12:07:45;;;;;;;1.80;0.50;;;;;;;;;;5048613;28;20773;-87
2021/05/09 12:10:14;;;;;;;1.52;0.25;;;;;;;;;;5059332;28;20118;-87
2021/05/09 12:12:41;;;;;;;0.60;0.35;;;;;;;;;;5051787;28;20032;-87
2021/05/09 12:15:08;;;;;;;0.70;0.35;;;;;;;;;;5073129;28;20028;-88
2021/05/09 12:17:35;;;;;;;0.82;0.30;;;;;;;;;;5059481;28;20024;-87
2021/05/09 12:20:01;;;;;;;1.00;0.30;;;;;;;;;;5066497;28;20020;-87
2021/05/09 12:22:38;;;;;;;1.15;0.30;;;;;;;;;;5057435;28;20044;-87
2021/05/09 12:25:04;;;;;;;0.82;0.30;;;;;;;;;;5048505;28;20112;-86
2021/05/09 12:27:30;;;;;;;1.33;0.30;;;;;;;;;;5054740;28;20530;-86
2021/05/09 12:29:57;;;;;;;1.65;0.30;;;;;;;;;;5054225;28;20024;-88
2021/05/09 12:32:25;;;;;;;2.22;0.30;;;;;;;;;;5057204;28;20021;-86
2021/05/09 12:35:05;;;;;;;1.95;0.20;;;;;;;;;;5076586;28;20376;-87
2021/05/09 12:38:00;;;;;;;0.85;0.20;;;;;;;;;;5069375;28;20024;-87
2021/05/09 12:40:29;;;;;;;1.73;0.50;;;;;;;;;;5050264;28;20113;-87
2021/05/09 12:42:59;;;;;;;3.53;0.63;;;;;;;;;;5055332;28;20032;-86
2021/05/09 12:45:31;;;;;;;2.60;0.30;;;;;;;;;;5057841;28;20032;-85
2021/05/09 12:48:13;;;;;;;0.43;0.15;;;;;;;;;;5057819;28;20472;-85
2021/05/09 12:50:39;;;;;;;;;;;;;;;;;;5070180;28;20380;-85
2021/05/09 12:53:05;;;;;;;2.33;0.28;;;;;;;;;;5056945;28;19926;-85
2021/05/09 12:55:31;;;;;;;0.95;0.35;;;;;;;;;;5051056;28;20033;-86
2021/05/09 12:58:11;;;;;;;0.73;0.25;;;;;;;;;;5058163;28;20059;-85
2021/05/09 13:00:37;;;;;;;0.95;0.50;;;;;;;;;;5060341;28;20025;-85
2021/05/09 13:03:03;;;;;;;1.80;0.77;;;;;;;;;;5043408;28;20052;-85
2021/05/09 13:05:29;;;;;;;1.55;0.75;;;;;;;;;;5057728;28;20163;-86
2021/05/09 13:07:55;;;;;;;0.77;0.45;;;;;;;;;;5047099;28;20025;-86
2021/05/09 13:10:22;;;;;;;0.57;0.32;;;;;;;;;;5049780;28;20033;-86
2021/05/09 13:12:53;;;;;;;0.63;0.30;;;;;;;;;;5050523;28;20020;-86
2021/05/09 13:15:19;;;;;;;0.95;0.30;;;;;;;;;;5057762;28;20434;-87
2021/05/09 13:17:45;;;;;;;0.93;0.40;;;;;;;;;;5057336;28;20024;-86
2021/05/09 13:20:12;;;;;;;0.90;0.30;;;;;;;;;;5044608;28;20503;-86
2021/05/09 13:22:38;;;;;;;0.63;0.28;;;;;;;;;;5057834;28;20565;-86
2021/05/09 13:25:04;;;;;;;0.32;0.20;;;;;;;;;;5057983;28;20472;-86
2021/05/09 13:27:34;;;;;;;1.05;0.20;;;;;;;;;;5076099;28;20078;-86
2021/05/09 13:30:01;;;;;;;0.90;0.30;;;;;;;;;;5070661;28;20078;-86
2021/05/09 13:32:27;;;;;;;1.50;0.30;;;;;;;;;;5068249;28;20143;-86
2021/05/09 13:34:54;;;;;;;0.32;0.20;;;;;;;;;;5057784;28;20062;-86
2021/05/09 13:37:20;;;;;;;2.10;0.40;;;;;;;;;;5057554;28;20419;-86
2021/05/09 13:39:46;;;;;;;0.60;0.30;;;;;;;;;;5057150;28;20059;-85
2021/05/09 13:42:12;;;;;;;0.88;0.50;;;;;;;;;;5063123;28;20017;-85
2021/05/09 13:44:38;;;;;;;1.55;0.30;;;;;;;;;;5057212;28;20029;-85
2021/05/09 13:47:05;;;;;;;0.77;0.38;;;;;;;;;;5041924;28;20388;-85
2021/05/09 13:49:31;;;;;;;0.57;0.40;;;;;;;;;;5054171;28;20032;-84
2021/05/09 13:51:57;;;;;;;2.15;0.40;;;;;;;;;;5043370;28;20029;-86
2021/05/09 13:54:23;;;;;;;2.72;0.30;;;;;;;;;;5057519;28;20024;-85
2021/05/09 13:56:49;;;;;;;0.75;0.25;;;;;;;;;;5057295;28;20021;-86
2021/05/09 13:59:15;;;;;;;0.50;0.20;;;;;;;;;;5066158;28;20545;-85
2021/05/09 14:01:41;;;;;;;0.95;0.30;;;;;;;;;;5054123;28;20036;-83
2021/05/09 14:04:10;;;;;;;1.55;0.32;;;;;;;;;;5055981;28;20020;-84
2021/05/09 14:06:36;;;;;;;0.68;0.30;;;;;;;;;;5066873;28;20021;-85
2021/05/09 14:09:02;;;;;;;1.05;0.22;;;;;;;;;;5054636;28;20132;-85
2021/05/09 14:11:28;;;;;;;0.40;0.30;;;;;;;;;;5050069;28;20066;-85
2021/05/09 14:13:54;;;;;;;2.38;0.30;;;;;;;;;;5067691;28;20021;-85
2021/05/09 14:16:22;;;;;;;0.63;0.20;;;;;;;;;;5067476;28;20027;-86
2021/05/09 14:18:48;;;;;;;1.00;0.43;;;;;;;;;;5056596;28;20016;-85
2021/05/09 14:21:15;;;;;;;0.85;0.20;;;;;;;;;;5074250;28;20031;-86
2021/05/09 14:23:41;;;;;;;1.45;0.40;;;;;;;;;;5070953;28;20036;-85
2021/05/09 14:26:07;;;;;;;2.35;0.30;;;;;;;;;;5055832;28;20027;-85
2021/05/09 14:28:34;;;;;;;1.80;0.40;;;;;;;;;;5055052;28;20104;-85
2021/05/09 14:31:00;;;;;;;0.93;0.30;;;;;;;;;;5051471;28;20483;-85
2021/05/09 14:33:26;;;;;;;1.40;0.30;;;;;;;;;;5056917;28;20553;-85
2021/05/09 14:35:52;;;;;;;1.67;0.25;;;;;;;;;;5047964;28;20540;-85
2021/05/09 14:38:18;;;;;;;1.08;0.30;;;;;;;;;;5038309;28;20032;-85
2021/05/09 14:40:44;;;;;;;3.92;0.63;;;;;;;;;;5036674;28;20128;-85
2021/05/09 14:43:13;;;;;;;0.70;0.30;;;;;;;;;;5052337;28;20488;-85
2021/05/09 14:45:39;;;;;;;0.95;0.20;;;;;;;;;;5040567;28;20045;-85